createdAt,value
2018-05-13T00:00:18.445Z,43.01
2018-05-13T00:02:46.043Z,43.11
2018-05-13T00:05:13.705Z,43.32
2018-05-13T00:07:41.197Z,43.17
2018-05-13T00:10:08.804Z,43.41
2018-05-13T00:12:36.381Z,43.42
2018-05-13T00:15:03.938Z,43.43
2018-05-13T00:17:31.468Z,43.23
2018-05-13T00:19:59.635Z,43.44
2018-05-13T00:22:27.201Z,42.98
2018-05-13T00:24:54.825Z,42.82
2018-05-13T00:27:22.404Z,42.95
2018-05-13T00:29:50.021Z,43.22
2018-05-13T00:32:17.577Z,43.02
2018-05-13T00:34:45.165Z,43.11
2018-05-13T00:37:12.693Z,43.17
2018-05-13T00:39:40.252Z,42.80
2018-05-13T00:42:07.777Z,42.91
2018-05-13T00:44:35.309Z,42.89
2018-05-13T00:47:02.831Z,42.92
2018-05-13T00:49:30.392Z,42.97
2018-05-13T00:51:57.943Z,43.16
2018-05-13T00:54:37.185Z,43.13
2018-05-13T00:57:04.746Z,43.11
2018-05-13T00:59:32.310Z,43.31
2018-05-13T01:01:59.852Z,43.45
2018-05-13T01:04:27.403Z,43.33
2018-05-13T01:06:54.923Z,43.20
2018-05-13T01:09:22.480Z,43.26
2018-05-13T01:11:50.063Z,43.58
2018-05-13T01:14:18.547Z,43.49
2018-05-13T01:16:46.075Z,43.56
2018-05-13T01:19:13.618Z,43.73
2018-05-13T01:21:41.166Z,43.72
2018-05-13T01:24:08.737Z,43.62
2018-05-13T01:26:36.252Z,43.46
2018-05-13T01:29:03.832Z,43.59
2018-05-13T01:31:31.379Z,43.44
2018-05-13T01:33:58.894Z,43.52
2018-05-13T01:36:26.436Z,43.64
2018-05-13T01:38:53.993Z,43.91
2018-05-13T01:41:21.537Z,44.03
2018-05-13T01:43:49.108Z,44.15
2018-05-13T01:46:16.684Z,44.16
2018-05-13T01:48:44.224Z,44.25
2018-05-13T01:51:11.798Z,44.21
2018-05-13T01:53:39.310Z,44.27
2018-05-13T01:56:06.865Z,44.44
2018-05-13T01:58:34.381Z,44.38
2018-05-13T02:01:01.980Z,44.39
2018-05-13T02:03:29.501Z,44.44
2018-05-13T02:05:57.068Z,44.85
2018-05-13T02:08:24.634Z,44.89
2018-05-13T02:10:52.175Z,44.68
2018-05-13T02:13:19.696Z,44.38
2018-05-13T02:15:47.236Z,44.47
2018-05-13T02:18:14.750Z,44.73
2018-05-13T02:20:42.306Z,44.74
2018-05-13T02:23:09.839Z,44.80
2018-05-13T02:25:37.368Z,44.91
2018-05-13T02:28:04.900Z,44.89
2018-05-13T02:30:32.468Z,45.06
2018-05-13T02:32:59.975Z,45.19
2018-05-13T02:35:27.521Z,45.27
2018-05-13T02:37:55.093Z,45.29
2018-05-13T02:40:22.652Z,45.50
2018-05-13T02:42:50.204Z,45.44
2018-05-13T02:45:17.759Z,45.44
2018-05-13T02:47:45.318Z,45.57
2018-05-13T02:50:12.912Z,45.69
2018-05-13T02:52:40.492Z,45.69
2018-05-13T02:55:08.045Z,45.71
2018-05-13T02:57:35.588Z,45.80
2018-05-13T03:00:03.134Z,46.02
2018-05-13T03:02:30.717Z,46.18
2018-05-13T03:04:58.261Z,46.35
2018-05-13T03:07:25.838Z,46.67
2018-05-13T03:09:53.414Z,46.73
2018-05-13T03:12:20.964Z,46.67
2018-05-13T03:14:48.495Z,46.39
2018-05-13T03:17:16.046Z,46.38
2018-05-13T03:19:43.624Z,46.41
2018-05-13T03:22:11.252Z,46.46
2018-05-13T03:24:38.845Z,46.31
2018-05-13T03:27:06.477Z,46.32
2018-05-13T03:29:34.053Z,46.08
2018-05-13T03:32:01.681Z,46.10
2018-05-13T03:34:29.254Z,46.23
2018-05-13T03:36:56.820Z,46.39
2018-05-13T03:39:24.398Z,46.28
2018-05-13T03:41:52.001Z,46.29
2018-05-13T03:44:19.535Z,46.23
2018-05-13T03:46:47.092Z,46.41
2018-05-13T03:49:14.604Z,46.50
2018-05-13T03:51:42.141Z,46.56
2018-05-13T03:54:09.706Z,46.79
2018-05-13T03:56:37.290Z,46.94
2018-05-13T03:59:04.840Z,46.98
2018-05-13T04:01:32.424Z,47.02
2018-05-13T04:03:59.972Z,46.84
2018-05-13T04:06:27.548Z,46.96
2018-05-13T04:09:06.862Z,46.76
2018-05-13T04:14:54.175Z,46.83
2018-05-13T04:17:21.709Z,46.41
2018-05-13T04:19:49.252Z,46.11
2018-05-13T04:22:16.798Z,45.90
2018-05-13T04:24:44.351Z,45.47
2018-05-13T04:27:11.890Z,45.47
2018-05-13T04:29:39.431Z,45.34
2018-05-13T04:32:06.990Z,45.23
2018-05-13T04:34:34.533Z,45.51
2018-05-13T04:37:02.043Z,45.73
2018-05-13T04:39:30.406Z,45.60
2018-05-13T04:41:57.953Z,45.50
2018-05-13T04:44:25.518Z,45.79
2018-05-13T04:46:53.164Z,45.89
2018-05-13T04:49:20.736Z,46.04
2018-05-13T04:51:48.303Z,46.15
2018-05-13T04:54:15.856Z,46.28
2018-05-13T04:56:43.388Z,46.30
2018-05-13T04:59:10.926Z,46.69
2018-05-13T05:01:38.474Z,46.69
2018-05-13T05:04:06.068Z,46.65
2018-05-13T05:06:34.046Z,46.96
2018-05-13T05:09:01.646Z,46.74
2018-05-13T05:11:29.167Z,46.67
2018-05-13T05:13:56.731Z,46.76
2018-05-13T05:16:24.317Z,46.68
2018-05-13T05:18:51.852Z,46.87
2018-05-13T05:21:19.401Z,46.62
2018-05-13T05:23:46.989Z,46.31
2018-05-13T05:26:14.537Z,46.23
2018-05-13T05:28:42.118Z,46.40
2018-05-13T05:31:09.636Z,45.81
2018-05-13T05:33:37.205Z,45.78
2018-05-13T05:36:04.773Z,45.65
2018-05-13T05:38:32.324Z,45.57
2018-05-13T05:40:59.876Z,45.56
2018-05-13T05:43:27.473Z,45.65
2018-05-13T05:45:55.008Z,45.60
2018-05-13T05:48:22.574Z,45.89
2018-05-13T05:50:50.156Z,45.80
2018-05-13T05:53:17.678Z,45.78
2018-05-13T05:55:45.280Z,45.59
2018-05-13T05:58:12.808Z,45.28
2018-05-13T06:00:40.376Z,45.17
2018-05-13T06:03:07.979Z,44.73
2018-05-13T06:05:36.156Z,44.50
2018-05-13T06:08:03.730Z,44.09
2018-05-13T06:10:31.337Z,44.45
2018-05-13T06:12:58.904Z,44.11
2018-05-13T06:15:26.479Z,44.17
2018-05-13T06:17:54.035Z,43.38
2018-05-13T06:20:21.621Z,43.14
2018-05-13T06:22:49.153Z,42.30
2018-05-13T06:25:16.782Z,41.77
2018-05-13T06:27:44.324Z,41.12
2018-05-13T06:30:11.863Z,40.60
2018-05-13T06:32:40.059Z,40.54
2018-05-13T06:35:07.633Z,40.62
2018-05-13T06:37:35.238Z,40.95
2018-05-13T06:40:02.806Z,40.51
2018-05-13T06:42:30.383Z,40.37
2018-05-13T06:44:57.964Z,40.33
2018-05-13T06:47:25.568Z,40.09
2018-05-13T06:49:53.725Z,40.31
2018-05-13T06:52:21.300Z,40.04
2018-05-13T06:54:52.185Z,39.97
2018-05-13T06:57:19.817Z,38.26
2018-05-13T06:59:47.372Z,36.88
2018-05-13T07:02:15.003Z,36.35
2018-05-13T07:04:42.589Z,35.75
2018-05-13T07:07:10.173Z,35.41
2018-05-13T07:09:37.752Z,34.49
2018-05-13T07:12:05.368Z,33.67
2018-05-13T07:14:32.940Z,33.13
2018-05-13T07:17:00.724Z,32.30
2018-05-13T07:19:28.332Z,31.50
2018-05-13T07:21:55.903Z,31.06
2018-05-13T07:24:23.471Z,30.94
2018-05-13T07:26:51.037Z,31.04
2018-05-13T07:29:18.710Z,31.01
2018-05-13T07:31:46.271Z,31.16
2018-05-13T07:34:13.812Z,30.98
2018-05-13T07:36:41.359Z,31.39
2018-05-13T07:39:08.935Z,31.52
2018-05-13T07:41:36.487Z,31.80
2018-05-13T07:44:04.035Z,32.43
2018-05-13T07:46:31.587Z,32.06
2018-05-13T07:48:59.148Z,31.89
2018-05-13T07:51:26.756Z,32.16
2018-05-13T07:53:54.322Z,32.61
2018-05-13T07:56:21.937Z,32.74
2018-05-13T07:58:49.484Z,32.55
2018-05-13T08:01:17.068Z,32.51
2018-05-13T08:03:44.663Z,32.30
2018-05-13T08:06:12.360Z,33.14
2018-05-13T08:08:39.911Z,32.50
2018-05-13T08:11:07.572Z,32.69
2018-05-13T08:13:35.299Z,33.03
2018-05-13T08:16:02.841Z,33.52
2018-05-13T08:18:30.375Z,33.99
2018-05-13T08:20:57.962Z,34.76
2018-05-13T08:23:25.526Z,35.20
2018-05-13T08:25:53.206Z,35.82
2018-05-13T08:28:20.781Z,36.31
2018-05-13T08:30:48.423Z,36.68
2018-05-13T08:33:16.414Z,37.13
2018-05-13T08:35:43.993Z,37.55
2018-05-13T08:38:11.559Z,37.92
2018-05-13T08:40:39.116Z,38.27
2018-05-13T08:43:06.740Z,38.64
2018-05-13T08:45:34.380Z,39.03
2018-05-13T08:48:01.997Z,39.49
2018-05-13T08:50:29.579Z,39.93
2018-05-13T08:52:57.157Z,40.49
2018-05-13T08:55:24.745Z,41.13
2018-05-13T08:57:52.343Z,41.52
2018-05-13T09:00:19.970Z,41.73
2018-05-13T09:02:47.546Z,42.00
2018-05-13T09:05:15.132Z,42.04
2018-05-13T09:07:42.700Z,41.69
2018-05-13T09:10:10.622Z,41.15
2018-05-13T09:12:38.225Z,40.75
2018-05-13T09:15:05.775Z,40.54
2018-05-13T09:17:33.327Z,40.12
2018-05-13T09:20:01.149Z,39.11
2018-05-13T09:22:28.694Z,38.94
2018-05-13T09:24:56.340Z,38.75
2018-05-13T09:27:23.931Z,39.08
2018-05-13T09:29:51.487Z,39.27
2018-05-13T09:32:19.046Z,39.12
2018-05-13T09:34:46.598Z,39.64
2018-05-13T09:37:14.165Z,40.26
2018-05-13T09:39:41.685Z,40.99
2018-05-13T09:42:09.232Z,41.75
2018-05-13T09:44:36.806Z,42.27
2018-05-13T09:47:04.414Z,42.87
2018-05-13T09:49:31.944Z,43.27
2018-05-13T09:51:59.555Z,43.63
2018-05-13T09:54:27.089Z,43.96
2018-05-13T09:56:54.821Z,44.54
2018-05-13T09:59:24.449Z,45.04
2018-05-13T10:01:52.014Z,45.47
2018-05-13T10:04:19.620Z,46.05
2018-05-13T10:06:47.169Z,46.52
2018-05-13T10:09:14.755Z,46.76
2018-05-13T10:11:42.383Z,47.05
2018-05-13T10:14:09.957Z,47.06
2018-05-13T10:16:37.504Z,47.27
2018-05-13T10:19:05.089Z,47.58
2018-05-13T10:21:32.633Z,48.11
2018-05-13T10:24:00.232Z,48.31
2018-05-13T10:26:27.799Z,48.66
2018-05-13T10:28:55.359Z,48.68
2018-05-13T10:31:22.926Z,48.75
2018-05-13T10:33:51.463Z,48.88
2018-05-13T10:36:19.073Z,49.06
2018-05-13T10:38:46.575Z,49.13
2018-05-13T10:41:14.183Z,49.23
2018-05-13T10:43:41.754Z,49.53
2018-05-13T10:46:09.388Z,50.04
2018-05-13T10:48:36.976Z,50.89
2018-05-13T10:51:04.519Z,51.41
2018-05-13T10:53:32.118Z,51.86
2018-05-13T10:55:59.659Z,51.85
2018-05-13T10:58:27.213Z,51.96
2018-05-13T11:00:54.745Z,52.02
2018-05-13T11:03:22.274Z,52.47
2018-05-13T11:05:49.811Z,52.51
2018-05-13T11:08:17.381Z,52.78
2018-05-13T11:10:44.956Z,52.69
2018-05-13T11:13:12.484Z,52.89
2018-05-13T11:15:40.016Z,52.91
2018-05-13T11:18:08.459Z,52.73
2018-05-13T11:20:36.107Z,52.95
2018-05-13T11:23:03.565Z,53.09
2018-05-13T11:25:31.119Z,53.27
2018-05-13T11:27:58.682Z,53.55
2018-05-13T11:30:26.231Z,54.00
2018-05-13T11:32:53.755Z,54.16
2018-05-13T11:35:21.731Z,54.62
2018-05-13T11:37:49.290Z,54.67
2018-05-13T11:40:16.849Z,54.53
2018-05-13T11:42:44.445Z,54.71
2018-05-13T11:45:11.988Z,54.76
2018-05-13T11:47:39.531Z,54.94
2018-05-13T11:50:07.154Z,54.86
2018-05-13T11:52:34.692Z,54.87
2018-05-13T11:55:02.275Z,54.82
2018-05-13T11:57:29.828Z,54.72
2018-05-13T11:59:57.387Z,54.92
2018-05-13T12:02:24.955Z,55.14
2018-05-13T12:04:52.496Z,54.91
2018-05-13T12:07:20.040Z,54.77
2018-05-13T12:09:47.614Z,54.30
2018-05-13T12:12:15.156Z,54.36
2018-05-13T12:14:42.726Z,54.53
2018-05-13T12:17:10.278Z,54.32
2018-05-13T12:19:37.832Z,54.17
2018-05-13T12:22:05.379Z,53.93
2018-05-13T12:24:32.943Z,53.77
2018-05-13T12:27:00.569Z,53.56
2018-05-13T12:29:28.150Z,53.22
2018-05-13T12:31:55.755Z,53.06
2018-05-13T12:34:23.343Z,53.00
2018-05-13T12:36:50.874Z,53.11
2018-05-13T12:39:18.451Z,53.28
2018-05-13T12:41:45.997Z,53.13
2018-05-13T12:44:13.612Z,53.13
2018-05-13T12:46:41.164Z,53.25
2018-05-13T12:49:08.717Z,53.20
2018-05-13T12:51:36.345Z,53.25
2018-05-13T12:54:03.914Z,53.27
2018-05-13T12:56:31.494Z,53.36
2018-05-13T12:58:59.106Z,53.22
2018-05-13T13:01:26.708Z,53.27
2018-05-13T13:03:54.335Z,53.21
2018-05-13T13:06:21.870Z,53.15
2018-05-13T13:08:49.428Z,53.35
2018-05-13T13:11:16.977Z,53.59
2018-05-13T13:13:44.549Z,53.75
2018-05-13T13:16:12.140Z,53.78
2018-05-13T13:18:39.710Z,53.98
2018-05-13T13:21:07.264Z,53.81
2018-05-13T13:23:34.833Z,53.84
2018-05-13T13:26:02.495Z,53.83
2018-05-13T13:28:30.071Z,53.90
2018-05-13T13:30:57.659Z,54.10
2018-05-13T13:33:25.180Z,54.17
2018-05-13T13:35:52.792Z,53.96
2018-05-13T13:38:20.350Z,53.98
2018-05-13T13:40:47.949Z,54.03
2018-05-13T13:43:15.541Z,54.21
2018-05-13T13:45:43.118Z,54.17
2018-05-13T13:48:10.712Z,54.69
2018-05-13T13:50:38.274Z,54.67
2018-05-13T13:53:05.829Z,54.98
2018-05-13T13:55:33.421Z,54.79
2018-05-13T13:58:01.064Z,54.48
2018-05-13T14:00:28.679Z,54.63
2018-05-13T14:02:56.251Z,54.54
2018-05-13T14:05:24.723Z,54.31
2018-05-13T14:07:52.293Z,53.97
2018-05-13T14:10:19.969Z,54.25
2018-05-13T14:12:47.624Z,54.09
2018-05-13T14:15:15.279Z,54.09
2018-05-13T14:17:42.892Z,54.31
2018-05-13T14:20:10.496Z,54.23
2018-05-13T14:22:38.033Z,54.17
2018-05-13T14:25:05.607Z,54.04
2018-05-13T14:27:33.180Z,54.01
2018-05-13T14:30:00.815Z,54.12
2018-05-13T14:32:28.684Z,54.31
2018-05-13T14:34:56.546Z,54.14
2018-05-13T14:37:24.184Z,53.99
2018-05-13T14:39:51.812Z,53.97
2018-05-13T14:42:19.545Z,53.92
2018-05-13T14:44:47.124Z,53.66
2018-05-13T14:47:14.729Z,53.32
2018-05-13T14:49:42.379Z,53.07
2018-05-13T14:52:09.976Z,52.92
2018-05-13T14:54:37.772Z,52.61
2018-05-13T14:57:05.436Z,51.82
2018-05-13T14:59:33.865Z,51.62
2018-05-13T15:02:01.425Z,51.79
2018-05-13T15:04:29.029Z,51.96
2018-05-13T15:06:56.596Z,52.26
2018-05-13T15:09:25.264Z,52.33
2018-05-13T15:11:51.742Z,52.31
2018-05-13T15:14:19.332Z,52.64
2018-05-13T15:16:46.977Z,52.83
2018-05-13T15:19:14.547Z,52.92
2018-05-13T15:21:42.154Z,52.85
2018-05-13T15:24:09.745Z,53.10
2018-05-13T15:26:37.383Z,53.22
2018-05-13T15:29:05.011Z,53.05
2018-05-13T15:31:32.554Z,53.22
2018-05-13T15:34:00.153Z,53.54
2018-05-13T15:36:28.276Z,53.76
2018-05-13T15:38:55.858Z,53.97
2018-05-13T15:41:23.390Z,54.06
2018-05-13T15:43:50.994Z,53.93
2018-05-13T15:46:18.600Z,53.77
2018-05-13T15:48:46.187Z,53.90
2018-05-13T15:51:13.800Z,53.94
2018-05-13T15:53:41.449Z,53.87
2018-05-13T15:56:09.019Z,54.13
2018-05-13T15:58:36.634Z,54.31
2018-05-13T16:01:04.176Z,54.37
2018-05-13T16:03:31.803Z,54.35
2018-05-13T16:05:59.426Z,54.25
2018-05-13T16:08:27.099Z,54.30
2018-05-13T16:10:54.807Z,54.35
2018-05-13T16:13:22.387Z,54.23
2018-05-13T16:15:49.973Z,53.90
2018-05-13T16:18:17.572Z,54.04
2018-05-13T16:20:45.278Z,54.37
2018-05-13T16:23:12.864Z,54.40
2018-05-13T16:25:40.415Z,54.52
2018-05-13T16:28:08.031Z,54.63
2018-05-13T16:30:35.625Z,54.61
2018-05-13T16:33:03.185Z,54.67
2018-05-13T16:35:30.813Z,54.83
2018-05-13T16:37:58.404Z,54.93
2018-05-13T16:40:26.135Z,55.18
2018-05-13T16:42:55.285Z,55.14
2018-05-13T16:45:22.884Z,55.32
2018-05-13T16:47:50.519Z,55.50
2018-05-13T16:50:18.310Z,55.62
2018-05-13T16:52:45.968Z,55.72
2018-05-13T16:55:13.528Z,55.78
2018-05-13T16:57:41.164Z,55.85
2018-05-13T17:00:08.886Z,55.94
2018-05-13T17:02:36.616Z,56.03
2018-05-13T17:05:04.270Z,56.13
2018-05-13T17:07:31.949Z,55.98
2018-05-13T17:09:59.588Z,56.07
2018-05-13T17:12:27.181Z,56.01
2018-05-13T17:14:54.825Z,56.06
2018-05-13T17:17:22.455Z,56.12
2018-05-13T17:19:49.987Z,56.09
2018-05-13T17:22:17.605Z,55.94
2018-05-13T17:24:45.476Z,56.02
2018-05-13T17:27:13.112Z,55.76
2018-05-13T17:29:40.721Z,55.87
2018-05-13T17:32:08.307Z,55.88
2018-05-13T17:34:35.899Z,55.88
2018-05-13T17:37:03.479Z,55.93
2018-05-13T17:39:31.091Z,55.97
2018-05-13T17:41:58.662Z,55.93
2018-05-13T17:44:26.366Z,56.00
2018-05-13T17:46:54.225Z,55.93
2018-05-13T17:49:21.880Z,56.03
2018-05-13T17:51:57.011Z,55.99
2018-05-13T17:54:25.497Z,56.01
2018-05-13T17:56:53.152Z,55.98
2018-05-13T17:59:20.817Z,55.87
2018-05-13T18:01:48.490Z,56.03
2018-05-13T18:04:16.097Z,55.97
2018-05-13T18:06:43.819Z,56.13
2018-05-13T18:09:11.517Z,56.16
2018-05-13T18:11:39.487Z,56.16
2018-05-13T18:14:07.125Z,56.13
2018-05-13T18:16:34.692Z,56.26
2018-05-13T18:19:02.281Z,56.10
2018-05-13T18:21:29.957Z,56.19
2018-05-13T18:23:57.510Z,56.32
2018-05-13T18:26:25.304Z,56.37
2018-05-13T18:28:52.998Z,56.37
2018-05-13T18:31:20.654Z,56.24
2018-05-13T18:33:48.585Z,56.19
2018-05-13T18:36:16.903Z,56.35
2018-05-13T18:38:44.762Z,56.41
2018-05-13T18:41:12.659Z,56.57
2018-05-13T18:43:41.143Z,56.67
2018-05-13T18:46:08.901Z,56.63
2018-05-13T18:48:36.541Z,56.69
2018-05-13T18:51:04.367Z,56.75
2018-05-13T18:53:32.057Z,56.78
2018-05-13T18:55:59.720Z,56.74
2018-05-13T18:58:27.640Z,56.79
2018-05-13T19:00:55.378Z,57.01
2018-05-13T19:03:23.025Z,57.05
2018-05-13T19:05:50.718Z,56.98
2018-05-13T19:08:18.559Z,57.01
2018-05-13T19:10:46.188Z,57.04
2018-05-13T19:13:13.793Z,57.06
2018-05-13T19:15:41.372Z,57.10
2018-05-13T19:18:08.921Z,57.12
2018-05-13T19:20:36.490Z,57.25
2018-05-13T19:23:04.087Z,57.32
2018-05-13T19:25:31.662Z,57.35
2018-05-13T19:27:59.216Z,57.36
2018-05-13T19:30:26.877Z,57.37
2018-05-13T19:32:54.364Z,57.45
2018-05-13T19:35:22.075Z,57.52
2018-05-13T19:37:49.618Z,57.58
2018-05-13T19:40:17.219Z,57.78
2018-05-13T19:42:44.762Z,57.73
2018-05-13T19:45:12.320Z,57.69
2018-05-13T19:47:39.867Z,57.57
2018-05-13T19:50:07.442Z,57.52
2018-05-13T19:52:35.032Z,57.54
2018-05-13T19:55:09.052Z,57.45
2018-05-13T19:57:36.662Z,57.33
2018-05-13T20:00:04.257Z,57.11
2018-05-13T20:02:31.917Z,57.13
2018-05-13T20:04:59.561Z,57.08
2018-05-13T20:07:27.157Z,56.96
2018-05-13T20:09:55.555Z,56.97
2018-05-13T20:12:23.274Z,56.96
2018-05-13T20:14:50.967Z,56.97
2018-05-13T20:17:18.676Z,56.90
2018-05-13T20:19:46.292Z,56.79
2018-05-13T20:22:14.074Z,56.76
2018-05-13T20:24:41.667Z,56.64
2018-05-13T20:27:09.314Z,56.72
2018-05-13T20:29:37.014Z,56.88
2018-05-13T20:32:04.696Z,56.99
2018-05-13T20:34:33.289Z,56.65
2018-05-13T20:37:01.051Z,56.74
2018-05-13T20:39:28.675Z,56.65
2018-05-13T20:41:56.315Z,56.93
2018-05-13T20:44:24.110Z,56.71
2018-05-13T20:46:51.601Z,56.64
2018-05-13T20:49:19.161Z,56.72
2018-05-13T20:51:46.849Z,56.68
2018-05-13T20:54:14.961Z,56.62
2018-05-13T20:56:42.535Z,57.05
2018-05-13T20:59:10.121Z,57.31
2018-05-13T21:01:37.669Z,57.42
2018-05-13T21:04:05.259Z,57.54
2018-05-13T21:06:32.833Z,57.64
2018-05-13T21:09:00.429Z,57.74
2018-05-13T21:11:27.981Z,57.82
2018-05-13T21:13:55.557Z,57.89
2018-05-13T21:16:23.116Z,57.80
2018-05-13T21:18:50.706Z,57.83
2018-05-13T21:21:18.305Z,57.96
2018-05-13T21:23:45.881Z,57.75
2018-05-13T21:26:13.477Z,57.95
2018-05-13T21:28:41.082Z,58.08
2018-05-13T21:31:08.653Z,58.01
2018-05-13T21:33:36.263Z,58.21
2018-05-13T21:36:03.864Z,58.25
2018-05-13T21:38:31.546Z,58.30
2018-05-13T21:40:59.126Z,58.20
2018-05-13T21:43:26.701Z,58.36
2018-05-13T21:45:54.391Z,58.35
2018-05-13T21:48:22.017Z,58.52
2018-05-13T21:50:49.635Z,58.53
2018-05-13T21:53:17.238Z,58.53
2018-05-13T21:55:44.817Z,58.50
2018-05-13T21:58:12.417Z,58.47
2018-05-13T22:00:39.982Z,58.48
2018-05-13T22:03:07.564Z,58.55
2018-05-13T22:05:35.135Z,58.60
2018-05-13T22:08:02.718Z,58.60
2018-05-13T22:10:30.245Z,58.69
2018-05-13T22:12:58.808Z,58.46
2018-05-13T22:15:26.347Z,58.53
2018-05-13T22:17:53.899Z,58.46
2018-05-13T22:20:21.419Z,58.45
2018-05-13T22:22:48.978Z,58.34
2018-05-13T22:25:16.516Z,58.53
2018-05-13T22:27:44.067Z,58.60
2018-05-13T22:30:11.665Z,58.79
2018-05-13T22:32:39.241Z,58.96
2018-05-13T22:35:06.801Z,58.99
2018-05-13T22:37:34.414Z,58.91
2018-05-13T22:40:02.028Z,58.81
2018-05-13T22:42:29.573Z,58.96
2018-05-13T22:44:57.232Z,59.06
2018-05-13T22:47:24.794Z,59.21
2018-05-13T22:49:52.369Z,59.20
2018-05-13T22:52:20.079Z,59.30
2018-05-13T22:54:47.688Z,59.43
2018-05-13T22:57:15.261Z,59.74
2018-05-13T22:59:42.857Z,59.69
2018-05-13T23:02:10.393Z,59.59
2018-05-13T23:04:38.064Z,59.66
2018-05-13T23:07:05.643Z,59.58
2018-05-13T23:09:33.231Z,59.68
2018-05-13T23:12:00.786Z,59.66
2018-05-13T23:14:28.385Z,59.95
2018-05-13T23:16:55.954Z,59.98
2018-05-13T23:19:23.553Z,60.08
2018-05-13T23:21:51.092Z,59.93
2018-05-13T23:24:18.678Z,60.09
2018-05-13T23:26:46.218Z,60.20
2018-05-13T23:29:13.793Z,60.36
2018-05-13T23:31:41.340Z,60.29
2018-05-13T23:34:08.936Z,60.29
2018-05-13T23:36:36.466Z,60.35
2018-05-13T23:39:04.027Z,60.29
2018-05-13T23:41:31.588Z,60.36
2018-05-13T23:43:59.123Z,60.44
2018-05-13T23:46:26.721Z,60.49
2018-05-13T23:48:54.272Z,60.56
2018-05-13T23:51:21.864Z,60.62
2018-05-13T23:53:49.423Z,60.57
2018-05-13T23:56:17.044Z,60.52
2018-05-13T23:58:44.613Z,60.65
